Terminal Aerodrome Forecast
Issued by NWS

Home | Current Version | Previous Version | Text Only | Print | Product List | Glossary On
Versions: 1 2 3 4 5 6 7 8 9 10 11 12 13 14 15 16 17 18 19 20 21 22 23 24 25 26 27 28 29 30 31 32 33 34 35 36 37 38
000
FTUS43 KDMX 291011 AAB
TAFMCW
TAF AMD
KMCW 291011Z 2910/3006 03003KT 1SM BR OVC002
     FM291500 04005KT 3SM BR OVC005
     FM291700 05007KT P6SM SCT012 BKN025
     FM291800 06006KT P6SM BKN035
     FM292000 08004KT P6SM FEW025
     FM300100 14003KT P6SM SKC=

USA.gov is the U.S. government's official web portal to all federal, state and local government web resources and services.